Timeline UpdatesTrip UpdatesNews PostsPvt PostsTravel TipsAdmin PostsConv PostsFollowed PostsChat RequestsBlog PostsPNR Posts

Disclaimer
Search
 
 
Fri Sep 19, 2014 21:21:10 ISTHomeTrainsΣChainsAtlasPNRForumGalleryNewsFAQTripsMembersLoginFeedback
No Recent News for this Train
Other Trains in the News **new
Latest...
..
Mon Dec 30, 2013 (12:02AM)
⇐ Return Journey: Train# 19040

19039/Avadh Express

Time-Table HAS CHANGED.
Sep 03 (6:37PM)
Change Departure Station:
Change Arrival Station:
Post a Train Travel TipPost a Train Travel Tip **new
Post a Comment/Question/Picture/VideoPost a Comment/Question/Picture/Video
Pantry/Catering
✓ Pantry Car Avbl
✓ Catering Avbl
Loco/Rake Reversals
LJN/Lucknow Junction NER (6);
RSA - Rake Sharing
19037/19038 have RSA with 19039/19040.
Rake/Coach Composition
LOCO-SLR-S15-S14-S13-S12-S11-S10-S9-S8-S7-S6-S5-S4-S3-S2-S1-PC-B2-B1-A1-GEN-GEN-SLR; Engine reverses at Lucknow
Loco
BDTS-LJN: BRC WAP-4 LJN-MFP: GD WDM-3A
News    PNR    Forum    Time-Table    Availability    Fare Chart    Map    Arr/Dep History    Trips    Gallery    ΣChains    X/O    Timeline    
Travel Time: 9h 35m    16 halts    Distance: 335 km    Avg Speed: 34 km/hr
Type: Mail/Express
Zone: WR/Western
Departs @ 12:15
Platform# ???
 M W  S
Maghar/MHH 
Arrives @ 21:50
Platform# 2
 M W  S
Muzaffarpur Junction/MFP 

16 halts. 56 intermediate Stations between Maghar and Muzaffarpur Junction

Show ALL intermediate Stations  Show Old Time-Table

#CodeStation NameX/OArrivesAvgDepartsAvgHaltPFDay#KmSpeedElevZoneAddress
1BDTSMumbai Bandra Terminus (5)  -22:40-21-1819.1234mWRMumbai 400050, Maharashtra
2ADHMumbai Andheri (9)  22:56-22:58-2m81-1813.04212mWRMumbai, Maharashtra
3BVIMumbai Borivali (8)  23:16-23:18-2m61-1800.46719mWRMumbai - 400092, Maharashtra
4BORBoisar (3)  00:19-00:21-2m22-1732.26017mWRBoisar Tel.no-02525-266626, Maharashtra
5VAPIVapi (3)X01:33 01:31-01:35 01:33-2m12-1661.96327mWRVapi, Gujarat
6BLValsad (3)X  01:58-02:00-2m22-1635.76515mWRValsad, Gujarat
7STSurat (4)  03:03-03:08-5m12-1567.06519mWRSurat 395001, Gujarat
8AKVAnkleshwar Junction (4)X  03:54-03:56-2m12-1517.07319mWRAnkleshwar, Gujarat
9BRCVadodara Junction (7)XO  05:02-05:12-10m32-1437.27036mWRVadodara 390005, Gujarat
10GDAGodhra Junction (3)  06:15-06:18-3m--2-1363.380122mWRGodhra, Gujarat
11DHDDahod (3)  07:13-07:15-2m--2-1290.290313mWRDahod, Gujarat
12MGNMeghnagar (3)X  07:37-07:39-2m--2-1257.174317mWRJhabua, Madhya Pradesh
13BMIBamnia (2)X  08:08-08:10-2m--2-1221.534392mWRBamnia, Madhya Pradesh
14RTMRatlam Junction (7)  09:30-09:50-20m--2-1176.872495mWRRatlam, Madhya Pradesh
15KUHKhachrod (2)X  10:12 10:13-10:14 10:15-2m--2-1149.124497mWRUjjain, Madhya Pradesh
16NADNagda Junction (4)X  10:55 10:50-11:00 10:55-5m--2-1135.368468mWRNagda, Madhya Pradesh
17MEPMahidpur Road  11:14 11:10-11:16 11:12-2m--2-1118.390493mWCRGogapur, Madhya Pradesh
18VMAVikramgarh Alot (2)X  11:33 11:28-11:35 11:30-2m22-1094.473443mWCRKota Division, Madhya Pradesh
19CMUChau Mahla (3)  11:53 11:48-11:55 11:50-2m22-1072.666426mWCRJhalawar, Rajasthan
20SVASuwasra (2)  12:08 12:04-12:10 12:06-2m--2-1057.267450mWCRSuwasra, Madhya Pradesh
21SGZShamgarh (3)X  12:23 12:18-12:25 12:20-2m--2-1043.865463mWCRMandsaur, Madhya Pradesh
22GOHGaroth (2)  12:33 12:30-12:35 12:32-2m22-1032.985441mWCRMadhya Pradesh 458880, Madhya Pradesh
23BWMBhawani Mandi (3)X  12:53 12:48-12:55 12:50-2m--2-1010.376384mWCRBhawani Mandi, Madhya Pradesh
24JHWJhalawar Road (3)  13:08 13:03-13:10 13:05-2m--2-993.874361mWCRJhalawar City, Rajasthan
25RMARamganj Mandi Junction (3)  13:20 13:15-13:22 13:17-2m--2-981.454358mWCRRamganj Mandi, Rajasthan
26MKXMorak (2)  13:32 13:27-13:34 13:29-2m--2-972.481337mWCRMorak, Rajasthan
27DKNTDakaniya Talav (2)  14:13 14:08-14:15 14:10-2m12-919.528278mWCRKota, Rajasthan
28KOTAKota Junction (5)  14:40 14:30-14:50 14:40-10m12-910.289256mWCRKota, Rajasthan
29LKELakheri (3)  15:23 15:21-15:25 15:23-2m--2-849.655228mWCRBundi, Rajasthan
30IDGIndargarh Sumerganj Mandi (2)  15:35-15:37-2m--2-838.678247mWCRIndargarh, Rajasthan
31SWMSawai Madhopur Junction (4)  16:25 16:05-16:30 16:10-5m--2-802.351266mWCRSawai Madhopur, Rajasthan
32GGCGangapur City (3)X  17:23 17:25-17:25 17:30-2 5m--2-738.468270mWCRGangapur, Rajasthan
33SMBJShri Mahabirji (3)  17:50 18:00-17:52 18:02-2m--2-704.361240mWCRKarauli, Rajasthan
34HANHindaun City (2)  18:02 18:12-18:04 18:14-2m--2-694.227230mWCRKarauli, Rajasthan
35BXNBayana Junction (3)  19:23 19:28-19:25 19:30-2m--2-661.368198mWCRBayana, Rajasthan
36RBSRupbas (2)X  20:09 20:00-20:11 20:01-2 1m--2-627.157178mNCRJAGNER ROAD, Rajasthan
37FTSFatehpur Sikri (2)  20:31 20:16-20:33 20:18-2m--2-612.946176mNCRAgra, Uttar Pradesh
38KLBKiraoli (1)  20:48 20:34-20:50 20:35-2 1m12-600.628174mNCRKiraoli, Uttar Pradesh
39IDHIdgah Agra Junction (3)  21:26 21:21-21:28 21:23-2m--2-578.98168mNCRAgra, Uttar Pradesh
40AFAgra Fort (3)  21:45 21:40-21:55 21:50-10m12-576.814170mNCRRakabganj, Uttar Pradesh
41TDLTundla Junction (5)XO  23:25-23:35-10m32-553.833167mNCRDistt.Firozabad, Uttar Pradesh
42FZDFirozabad (4)X  00:05-00:07-2m23-537.357164mNCRFirozabad, Uttar Pradesh
43SKBShikohabad Junction (4)X  00:28-00:30-2m23-517.485166mNCRDistrict Firozabad, Uttar Pradesh
44ETWEtawah (5)X  01:09-01:11-2m33-462.070154mNCRDistt. Etawah, Uttar Pradesh
45BNTBharthana (3)XO  01:28-01:30-2m--3-442.248147mNCRBharthana, Uttar Pradesh
46PHDPhaphund (4)X  02:15-02:17-2m--3-405.836146mNCRdist. Auraiya, Uttar Pradesh
47CNBKanpur Central (10)  04:35-04:45-10m--3-322.747128mNCRKANPUR-208 001, Uttar Pradesh
48ONUnnao Junction (5)X  05:06 05:07-05:08 05:09-2m--3-305.243129mNRUnnao, Uttar Pradesh
49LJNLucknow Junction NER (6)X↵¶06:25-06:50-25m43-251.410126mNERLucknow, Uttar Pradesh
50LCLucknow City (3)  07:14 07:18-07:16 07:20-2m--3-246.731127mNERLucknow, Uttar Pradesh
51BNZBadshahnagar (2)  07:33 07:32-07:35 07:37-2 5m13-240.443116mNERLucknow, Uttar Pradesh
52GTNRGomti Nagar (3)  07:41 07:43-07:43 07:44-2 1m13-236.147117mNERLucknow, Uttar Pradesh
53BBKBarabanki Junction (4)  08:10-08:12-2m--3-215.877122mNRPin-225001, Uttar Pradesh
54BUWBurhwal Junction (3)X  08:40 08:33-08:42 08:35-2m--3-188.760119mNERBarabanki, Uttar Pradesh
55JLDJarwal Road (2)X  09:00 08:51-09:02 08:53-2m--3-172.645112mNERBehraich, Uttar Pradesh
56CLJColonelGanj (2)  09:20 09:16-09:22 09:18-2m--3-155.447108mNERGonda, Uttar Pradesh
57GDGonda Junction (3)  10:15 09:55-10:25 10:05-10m23-126.580110mNERGonda 271001, Uttar Pradesh
58MURMankapur Junction (5)X  10:48 10:26-10:50 10:28-2m13-98.660104mNERDistrict Gonda, Uttar Pradesh
59MSWMaskanwa (2)  11:03 10:42-11:05 10:44-2m--3-84.559103mNERChhapaiya Rd, Uttar Pradesh
60BVBabhnan (2)  11:20 11:00-11:22 11:02-2m--3-68.866101mNERDistrict- Basti, Uttar Pradesh
61BSTBasti (4)X  11:50 11:30-11:55 11:35-5m--3-38.07190mNERBasti 272001, Uttar Pradesh
62KLDKhalilabad (3)  12:18 12:00-12:20 12:02-2m--3-8.54686mNERKhalilabad- 272175, Uttar Pradesh
63MHHMaghar (3)»  12:34 12:13-12:36 12:15-2m--30.03883mNERNH 28. Distt- SantKabirNagar- 272173, Uttar Pradesh
64SWASahjanwa (2)  12:51 12:28-12:53 12:30-2m--38.31580mNERGorakhpur - 273209, Uttar Pradesh
65GKPGorakhpur Junction (10)  13:40-13:55-15m--325.44984mNERGorakhpur 273001, Uttar Pradesh
66PPCPipraichX  14:18-14:20-2m--344.44785mNERGorakhpur Bypass, Uttar Pradesh
67CPJKaptanganj Junction  14:45-14:50-5m--364.16189mNERCaptainganj, Uttar Pradesh
68SBZSiswa Bazar  15:16-15:18-2m--390.63494mNERSiswa Bazar, Uttar Pradesh
69KZAKhada15:43-15:45-2m--3104.92298mNERKhadda Katai Bharpurva Bandh, Uttar Pradesh
70PNYAPaniahwa (2)  16:03-16:05-2m--3111.53696mNERPaniyahawa Railway Station, Uttar Pradesh
71BUGBagaha (2)X  16:49 16:42-16:54 16:47-5m--3133.87393mECRBagaha, Bihar
72HIRHarinagar  17:21 17:08-17:23 17:10-2m--3159.44797mECRRamnagar, Bihar
73NKENarkatiaganj Junction (3)  17:45 17:30-17:50 17:35-5m--3174.95889mECRNarkatiaganj, Bihar
74BTHBettiah (2)  18:34 18:13-18:36 18:15-2m--3211.65979mECRBettiah, Bihar
75SGLSagauli (3)X  18:57 18:38-18:59 18:40-2m--3234.43373mECRSugauli, Bihar
76BMKIBapudham Motihari (2)  19:17-19:22-5m--3255.07172mECRMotihari, Bihar
77CAAChakia (1)X  19:49-19:51-2m13287.04066mECRChakia, Bihar
78MAIMehsi (1)X  20:04-20:06-2m13295.74064mECRMehsi, Bihar
79MTRMotipur (1)X  20:26-20:28-2m13309.01962mECRRatanpura, Bihar
80MFPMuzaffarpur Junction (6)•  21:50--23335.1-57mECRMuzaffarpur, Bihar
Scroll to Top
Scroll to Bottom